createdAt,value
2018-10-21T00:00:51.135Z,1023.15
2018-10-21T00:01:51.207Z,1023.11
2018-10-21T00:02:51.078Z,1023.10
2018-10-21T00:03:51.194Z,1023.05
2018-10-21T00:05:42.255Z,1023.07
2018-10-21T00:06:42.302Z,1023.05
2018-10-21T00:07:42.192Z,1022.97
2018-10-21T00:08:42.165Z,1022.95
2018-10-21T00:09:42.216Z,1022.93
2018-10-21T00:10:42.096Z,1022.95
2018-10-21T00:11:42.230Z,1022.94
2018-10-21T00:12:42.044Z,1022.94
2018-10-21T00:13:42.138Z,1022.93
2018-10-21T00:14:41.993Z,1022.92
2018-10-21T00:15:42.259Z,1022.91
2018-10-21T00:16:41.937Z,1022.89
2018-10-21T00:17:42.065Z,1022.85
2018-10-21T00:18:41.879Z,1022.84
2018-10-21T00:19:41.990Z,1022.84
2018-10-21T00:20:41.833Z,1022.82
2018-10-21T00:21:41.794Z,1022.84
2018-10-21T00:22:41.765Z,1022.84
2018-10-21T00:23:41.907Z,1022.84
2018-10-21T00:24:41.705Z,1022.85
2018-10-21T00:25:41.817Z,1022.85
2018-10-21T00:26:41.657Z,1022.87
2018-10-21T00:27:41.624Z,1022.88
2018-10-21T00:28:41.734Z,1022.83
2018-10-21T00:29:41.568Z,1022.81
2018-10-21T00:30:41.650Z,1022.82
2018-10-21T00:31:41.512Z,1022.76
2018-10-21T00:32:41.663Z,1022.77
2018-10-21T00:33:41.460Z,1022.78
2018-10-21T00:34:41.597Z,1022.79
2018-10-21T00:35:41.401Z,1022.78
2018-10-21T00:36:41.488Z,1022.80
2018-10-21T00:37:41.347Z,1022.84
2018-10-21T00:38:41.513Z,1022.79
2018-10-21T00:39:41.293Z,1022.82
2018-10-21T00:40:41.414Z,1022.78
2018-10-21T00:41:41.235Z,1022.76
2018-10-21T00:42:41.323Z,1022.76
2018-10-21T00:43:41.172Z,1022.75
2018-10-21T00:44:41.333Z,1022.85
2018-10-21T00:45:41.122Z,1022.81
2018-10-21T00:46:41.094Z,1022.77
2018-10-21T00:47:41.251Z,1022.75
2018-10-21T00:48:41.042Z,1022.71
2018-10-21T00:49:41.168Z,1022.73
2018-10-21T00:50:40.986Z,1022.70
2018-10-21T00:51:41.084Z,1022.71
2018-10-21T00:52:40.925Z,1022.67
2018-10-21T00:53:41.088Z,1022.72
2018-10-21T00:54:40.870Z,1022.71
2018-10-21T00:55:41.005Z,1022.71
2018-10-21T00:56:40.819Z,1022.79
2018-10-21T00:57:40.918Z,1022.74
2018-10-21T00:58:40.757Z,1022.80
2018-10-21T00:59:40.926Z,1022.77
2018-10-21T01:00:40.704Z,1022.81
2018-10-21T01:01:40.837Z,1022.78
2018-10-21T01:02:40.653Z,1022.79
2018-10-21T01:03:40.746Z,1022.73
2018-10-21T01:04:40.589Z,1022.69
2018-10-21T01:05:40.570Z,1022.66
2018-10-21T01:06:40.669Z,1022.65
2018-10-21T01:07:40.517Z,1022.69
2018-10-21T01:08:40.597Z,1022.67
2018-10-21T01:09:40.443Z,1022.71
2018-10-21T01:10:40.608Z,1022.73
2018-10-21T01:11:40.400Z,1022.69
2018-10-21T01:12:40.452Z,1022.75
2018-10-21T01:13:40.339Z,1022.76
2018-10-21T01:14:40.364Z,1022.78
2018-10-21T01:15:40.275Z,1022.79
2018-10-21T01:16:40.418Z,1022.77
2018-10-21T01:17:40.230Z,1022.80
2018-10-21T01:18:40.201Z,1022.79
2018-10-21T01:19:40.169Z,1022.80
2018-10-21T01:20:40.196Z,1022.83
2018-10-21T01:21:40.117Z,1022.83
2018-10-21T01:22:40.219Z,1022.84
2018-10-21T01:23:40.060Z,1022.84
2018-10-21T01:24:41.157Z,1022.77
2018-10-21T01:25:39.999Z,1022.74
2018-10-21T01:26:39.971Z,1022.76
2018-10-21T01:27:40.037Z,1022.77
2018-10-21T01:28:39.923Z,1022.77
2018-10-21T01:29:39.957Z,1022.72
2018-10-21T01:30:39.859Z,1022.73
2018-10-21T01:31:39.967Z,1022.75
2018-10-21T01:32:39.808Z,1022.80
2018-10-21T01:33:39.876Z,1022.79
2018-10-21T01:34:39.747Z,1022.77
2018-10-21T01:35:39.723Z,1022.77
2018-10-21T01:36:39.887Z,1022.76
2018-10-21T01:37:39.686Z,1022.74
2018-10-21T01:38:40.733Z,1022.73
2018-10-21T01:39:39.610Z,1022.75
2018-10-21T01:40:39.584Z,1022.75
2018-10-21T01:41:39.552Z,1022.72
2018-10-21T01:43:26.189Z,1022.69
2018-10-21T01:44:26.230Z,1022.74
2018-10-21T01:45:26.120Z,1022.67
2018-10-21T01:46:26.260Z,1022.71
2018-10-21T01:47:26.057Z,1022.72
2018-10-21T01:48:26.158Z,1022.76
2018-10-21T01:49:25.998Z,1022.76
2018-10-21T01:50:26.068Z,1022.76
2018-10-21T01:51:25.949Z,1022.72
2018-10-21T01:52:27.024Z,1022.79
2018-10-21T01:53:25.891Z,1022.74
2018-10-21T01:54:25.992Z,1022.75
2018-10-21T01:55:25.835Z,1022.76
2018-10-21T01:56:25.904Z,1022.75
2018-10-21T01:57:25.771Z,1022.73
2018-10-21T01:58:25.816Z,1022.75
2018-10-21T01:59:25.719Z,1022.77
2018-10-21T02:00:25.692Z,1022.78
2018-10-21T02:01:25.665Z,1022.78
2018-10-21T02:02:25.696Z,1022.73
2018-10-21T02:03:25.634Z,1022.79
2018-10-21T02:04:25.707Z,1022.79
2018-10-21T02:05:25.552Z,1022.69
2018-10-21T02:06:25.622Z,1022.68
2018-10-21T02:07:25.499Z,1022.69
2018-10-21T02:08:25.539Z,1022.68
2018-10-21T02:09:25.445Z,1022.69
2018-10-21T02:10:25.445Z,1022.67
2018-10-21T02:11:25.376Z,1022.67
2018-10-21T02:12:25.453Z,1022.67
2018-10-21T02:13:25.320Z,1022.67
2018-10-21T02:14:25.365Z,1022.64
2018-10-21T02:15:25.317Z,1022.72
2018-10-21T02:16:25.321Z,1022.65
2018-10-21T02:17:25.240Z,1022.66
2018-10-21T02:18:25.182Z,1022.67
2018-10-21T02:19:25.237Z,1022.63
2018-10-21T02:20:25.127Z,1022.63
2018-10-21T02:21:25.251Z,1022.55
2018-10-21T02:22:25.074Z,1022.61
2018-10-21T02:23:25.158Z,1022.60
2018-10-21T02:24:25.009Z,1022.62
2018-10-21T02:25:25.075Z,1022.59
2018-10-21T02:26:25.057Z,1022.64
2018-10-21T02:27:25.082Z,1022.61
2018-10-21T02:28:24.903Z,1022.63
2018-10-21T02:29:24.951Z,1022.60
2018-10-21T02:30:24.839Z,1022.59
2018-10-21T02:31:24.867Z,1022.62
2018-10-21T02:32:24.784Z,1022.57
2018-10-21T02:33:25.059Z,1022.58
2018-10-21T02:34:24.734Z,1022.59
2018-10-21T02:35:25.812Z,1022.56
2018-10-21T02:36:24.671Z,1022.50
2018-10-21T02:37:24.698Z,1022.52
2018-10-21T02:38:24.615Z,1022.49
2018-10-21T02:39:24.713Z,1022.47
2018-10-21T02:40:24.560Z,1022.48
2018-10-21T02:41:26.570Z,1022.48
2018-10-21T02:42:24.500Z,1022.44
2018-10-21T02:43:24.536Z,1022.47
2018-10-21T02:44:24.440Z,1022.49
2018-10-21T02:45:24.547Z,1022.44
2018-10-21T02:46:24.422Z,1022.47
2018-10-21T02:47:24.458Z,1022.49
2018-10-21T02:48:24.332Z,1022.50
2018-10-21T02:49:24.314Z,1022.45
2018-10-21T02:50:24.381Z,1022.48
2018-10-21T02:51:24.245Z,1022.47
2018-10-21T02:52:24.315Z,1022.50
2018-10-21T02:53:24.192Z,1022.44
2018-10-21T02:54:24.201Z,1022.49
2018-10-21T02:55:24.128Z,1022.43
2018-10-21T02:56:24.222Z,1022.45
2018-10-21T02:57:24.074Z,1022.37
2018-10-21T02:58:24.145Z,1022.39
2018-10-21T02:59:24.012Z,1022.40
2018-10-21T03:00:24.033Z,1022.44
2018-10-21T03:01:23.962Z,1022.42
2018-10-21T03:02:24.063Z,1022.41
2018-10-21T03:03:23.905Z,1022.46
2018-10-21T03:04:23.969Z,1022.40
2018-10-21T03:05:23.836Z,1022.42
2018-10-21T03:06:23.868Z,1022.41
2018-10-21T03:07:23.791Z,1022.41
2018-10-21T03:08:23.887Z,1022.37
2018-10-21T03:09:23.726Z,1022.37
2018-10-21T03:10:23.815Z,1022.32
2018-10-21T03:11:23.692Z,1022.38
2018-10-21T03:12:23.718Z,1022.39
2018-10-21T03:13:23.619Z,1022.39
2018-10-21T03:14:23.726Z,1022.37
2018-10-21T03:15:23.577Z,1022.39
2018-10-21T03:17:10.711Z,1022.35
2018-10-21T03:18:10.715Z,1022.37
2018-10-21T03:19:10.756Z,1022.36
2018-10-21T03:20:10.608Z,1022.37
2018-10-21T03:21:10.726Z,1022.37
2018-10-21T03:22:10.548Z,1022.38
2018-10-21T03:23:10.580Z,1022.34
2018-10-21T03:24:10.489Z,1022.32
2018-10-21T03:25:10.596Z,1022.25
2018-10-21T03:26:10.432Z,1022.35
2018-10-21T03:27:10.513Z,1022.29
2018-10-21T03:28:10.375Z,1022.26
2018-10-21T03:29:10.405Z,1022.30
2018-10-21T03:30:10.319Z,1022.28
2018-10-21T03:31:10.431Z,1022.26
2018-10-21T03:32:10.284Z,1022.29
2018-10-21T03:33:10.429Z,1022.32
2018-10-21T03:34:10.203Z,1022.36
2018-10-21T03:35:10.178Z,1022.36
2018-10-21T03:36:10.149Z,1022.34
2018-10-21T03:37:10.423Z,1022.38
2018-10-21T03:38:10.092Z,1022.36
2018-10-21T03:39:11.251Z,1022.34
2018-10-21T03:40:10.106Z,1022.36
2018-10-21T03:41:11.163Z,1022.36
2018-10-21T03:42:09.980Z,1022.43
2018-10-21T03:43:10.152Z,1022.38
2018-10-21T03:44:09.923Z,1022.40
2018-10-21T03:45:10.065Z,1022.40
2018-10-21T03:46:09.924Z,1022.39
2018-10-21T03:47:09.977Z,1022.35
2018-10-21T03:48:09.840Z,1022.34
2018-10-21T03:49:15.926Z,1022.31
2018-10-21T03:50:09.740Z,1022.25
2018-10-21T03:51:10.921Z,1022.23
2018-10-21T03:52:09.762Z,1022.25
2018-10-21T03:53:09.811Z,1022.22
2018-10-21T03:54:09.651Z,1022.21
2018-10-21T03:55:09.822Z,1022.23
2018-10-21T03:56:09.586Z,1022.19
2018-10-21T03:57:09.550Z,1022.22
2018-10-21T03:58:10.705Z,1022.19
2018-10-21T03:59:09.488Z,1022.17
2018-10-21T04:00:09.653Z,1022.20
2018-10-21T04:01:09.436Z,1022.18
2018-10-21T04:02:10.592Z,1022.16
2018-10-21T04:03:09.384Z,1022.17
2018-10-21T04:04:09.494Z,1022.19
2018-10-21T04:05:09.318Z,1022.16
2018-10-21T04:06:09.487Z,1022.16
2018-10-21T04:07:09.273Z,1022.24
2018-10-21T04:08:11.344Z,1022.20
2018-10-21T04:09:09.216Z,1022.23
2018-10-21T04:10:09.501Z,1022.23
2018-10-21T04:12:04.481Z,1022.21
2018-10-21T04:13:04.524Z,1022.17
2018-10-21T04:14:04.404Z,1022.17
2018-10-21T04:15:04.431Z,1022.19
2018-10-21T04:16:04.407Z,1022.13
2018-10-21T04:17:05.467Z,1022.19
2018-10-21T04:18:04.277Z,1022.17
2018-10-21T04:19:05.481Z,1022.22
2018-10-21T04:20:04.234Z,1022.18
2018-10-21T04:21:04.270Z,1022.15
2018-10-21T04:22:04.194Z,1022.14
2018-10-21T04:23:05.201Z,1022.12
2018-10-21T04:24:04.133Z,1022.09
2018-10-21T04:25:04.201Z,1022.09
2018-10-21T04:26:04.053Z,1022.08
2018-10-21T04:27:04.121Z,1022.05
2018-10-21T04:28:04.060Z,1022.04
2018-10-21T04:29:04.016Z,1022.08
2018-10-21T04:30:03.942Z,1022.09
2018-10-21T04:31:04.045Z,1022.04
2018-10-21T04:32:03.881Z,1022.10
2018-10-21T04:33:03.948Z,1022.09
2018-10-21T04:34:03.888Z,1022.05
2018-10-21T04:35:03.857Z,1022.07
2018-10-21T04:36:03.768Z,1022.10
2018-10-21T04:37:03.870Z,1022.04
2018-10-21T04:38:03.706Z,1022.07
2018-10-21T04:39:03.775Z,1022.08
2018-10-21T04:40:03.700Z,1022.09
2018-10-21T04:41:03.692Z,1022.04
2018-10-21T04:42:03.588Z,1022.01
2018-10-21T04:43:03.601Z,1022.04
2018-10-21T04:44:03.535Z,1022.04
2018-10-21T04:45:03.612Z,1022.06
2018-10-21T04:46:03.487Z,1022.04
2018-10-21T04:47:03.667Z,1022.01
2018-10-21T04:48:03.418Z,1021.97
2018-10-21T04:49:03.392Z,1021.99
2018-10-21T04:50:03.444Z,1021.96
2018-10-21T04:51:03.333Z,1021.93
2018-10-21T04:52:03.365Z,1021.97
2018-10-21T04:53:03.285Z,1021.95
2018-10-21T04:54:03.380Z,1021.89
2018-10-21T04:55:03.225Z,1021.87
2018-10-21T04:56:03.288Z,1021.91
2018-10-21T04:57:03.171Z,1021.87
2018-10-21T04:58:58.399Z,1021.89
2018-10-21T04:59:58.579Z,1021.88
2018-10-21T05:00:58.343Z,1021.86
2018-10-21T05:01:58.388Z,1021.86
2018-10-21T05:02:58.272Z,1021.91
2018-10-21T05:03:58.261Z,1021.92
2018-10-21T05:04:58.309Z,1021.92
2018-10-21T05:05:58.182Z,1021.90
2018-10-21T05:06:58.213Z,1021.90
2018-10-21T05:07:58.122Z,1021.89
2018-10-21T05:08:58.129Z,1021.87
2018-10-21T05:09:58.062Z,1021.90
2018-10-21T05:10:58.146Z,1021.89
2018-10-21T05:11:58.005Z,1021.91
2018-10-21T05:12:58.054Z,1021.90
2018-10-21T05:13:57.959Z,1021.91
2018-10-21T05:14:58.033Z,1021.89
2018-10-21T05:15:57.893Z,1021.87
2018-10-21T05:16:58.047Z,1021.89
2018-10-21T05:17:57.842Z,1021.87
2018-10-21T05:18:57.951Z,1021.94
2018-10-21T05:19:57.803Z,1021.87
2018-10-21T05:20:57.752Z,1021.89
2018-10-21T05:21:57.810Z,1021.93
2018-10-21T05:22:57.699Z,1021.92
2018-10-21T05:23:57.774Z,1021.89
2018-10-21T05:24:57.636Z,1021.85
2018-10-21T05:25:57.713Z,1021.83
2018-10-21T05:26:57.581Z,1021.86
2018-10-21T05:27:57.574Z,1021.86
2018-10-21T05:28:57.528Z,1021.85
2018-10-21T05:29:57.624Z,1021.84
2018-10-21T05:30:57.496Z,1021.83
2018-10-21T05:31:57.548Z,1021.84
2018-10-21T05:32:57.410Z,1021.85
2018-10-21T05:33:57.469Z,1021.78
2018-10-21T05:34:57.345Z,1021.82
2018-10-21T05:35:57.368Z,1021.80
2018-10-21T05:36:57.293Z,1021.81
2018-10-21T05:37:57.355Z,1021.76
2018-10-21T05:38:57.228Z,1021.76
2018-10-21T05:39:57.223Z,1021.81
2018-10-21T05:40:57.205Z,1021.84
2018-10-21T05:41:57.210Z,1021.84
2018-10-21T05:42:57.124Z,1021.87
2018-10-21T05:43:57.110Z,1021.88
2018-10-21T05:44:57.066Z,1021.89
2018-10-21T05:45:44.945Z,1021.92
2018-10-21T05:46:45.062Z,1021.90
2018-10-21T05:47:44.863Z,1021.93
2018-10-21T05:48:44.893Z,1021.94
2018-10-21T05:49:44.809Z,1021.88
2018-10-21T05:50:44.775Z,1021.93
2018-10-21T05:51:44.749Z,1021.93
2018-10-21T05:52:45.842Z,1021.93
2018-10-21T05:53:44.702Z,1021.92
2018-10-21T05:54:44.712Z,1022.00
2018-10-21T05:55:44.647Z,1021.98
2018-10-21T05:56:44.726Z,1021.96
2018-10-21T05:57:44.623Z,1021.94
2018-10-21T05:58:44.636Z,1021.91
2018-10-21T05:59:44.514Z,1021.92
2018-10-21T06:00:44.551Z,1021.97
2018-10-21T06:01:44.457Z,1021.99
2018-10-21T06:02:44.586Z,1021.97
2018-10-21T06:03:44.407Z,1022.00
2018-10-21T06:04:44.488Z,1022.00
2018-10-21T06:05:44.344Z,1022.01
2018-10-21T06:06:44.399Z,1022.00
2018-10-21T06:07:44.285Z,1021.99
2018-10-21T06:08:44.407Z,1021.99
2018-10-21T06:09:44.232Z,1021.96
2018-10-21T06:10:44.325Z,1021.98
2018-10-21T06:11:44.158Z,1021.97
2018-10-21T06:12:44.140Z,1021.99
2018-10-21T06:13:44.114Z,1022.05
2018-10-21T06:14:45.177Z,1022.03
2018-10-21T06:15:44.091Z,1022.05
2018-10-21T06:16:44.151Z,1022.08
2018-10-21T06:17:43.984Z,1022.17
2018-10-21T06:18:44.100Z,1022.10
2018-10-21T06:19:43.963Z,1022.14
2018-10-21T06:20:43.972Z,1022.15
2018-10-21T06:21:43.877Z,1022.11
2018-10-21T06:22:43.852Z,1022.15
2018-10-21T06:23:43.887Z,1022.13
2018-10-21T06:24:43.789Z,1022.22
2018-10-21T06:25:43.900Z,1022.17
2018-10-21T06:26:43.733Z,1022.21
2018-10-21T06:27:43.917Z,1022.21
2018-10-21T06:28:43.695Z,1022.23
2018-10-21T06:29:43.721Z,1022.22
2018-10-21T06:30:43.648Z,1022.25
2018-10-21T06:31:43.753Z,1022.22
2018-10-21T06:32:43.553Z,1022.26
2018-10-21T06:33:43.767Z,1022.24
2018-10-21T06:34:43.510Z,1022.24
2018-10-21T06:35:43.577Z,1022.29
2018-10-21T06:36:43.499Z,1022.25
2018-10-21T06:37:43.431Z,1022.24
2018-10-21T06:38:43.377Z,1022.26
2018-10-21T06:39:43.353Z,1022.28
2018-10-21T06:40:43.390Z,1022.27
2018-10-21T06:41:43.293Z,1022.32
2018-10-21T06:42:43.421Z,1022.32
2018-10-21T06:43:43.238Z,1022.33
2018-10-21T06:44:43.361Z,1022.34
2018-10-21T06:45:43.209Z,1022.31
2018-10-21T06:46:43.226Z,1022.34
2018-10-21T06:47:43.142Z,1022.37
2018-10-21T06:48:43.251Z,1022.34
2018-10-21T06:49:43.100Z,1022.36
2018-10-21T06:50:43.159Z,1022.35
2018-10-21T06:51:43.004Z,1022.34
2018-10-21T06:52:43.063Z,1022.36
2018-10-21T06:53:42.968Z,1022.37
2018-10-21T06:54:43.078Z,1022.41
2018-10-21T06:55:42.886Z,1022.40
2018-10-21T06:56:43.034Z,1022.42
2018-10-21T06:57:42.932Z,1022.42
2018-10-21T06:58:42.899Z,1022.44
2018-10-21T06:59:42.780Z,1022.45
2018-10-21T07:00:42.766Z,1022.41
2018-10-21T07:01:42.816Z,1022.45
2018-10-21T07:02:42.691Z,1022.44
2018-10-21T07:03:42.736Z,1022.45
2018-10-21T07:04:42.717Z,1022.45
2018-10-21T07:05:42.757Z,1022.43
2018-10-21T07:06:42.580Z,1022.43
2018-10-21T07:07:42.656Z,1022.42
2018-10-21T07:08:42.524Z,1022.43
2018-10-21T07:09:42.501Z,1022.45
2018-10-21T07:10:42.575Z,1022.45
2018-10-21T07:11:42.424Z,1022.44
2018-10-21T07:12:42.542Z,1022.45
2018-10-21T07:13:42.363Z,1022.50
2018-10-21T07:14:42.495Z,1022.46
2018-10-21T07:15:42.391Z,1022.51
2018-10-21T07:16:42.568Z,1022.50
2018-10-21T07:17:42.260Z,1022.51
2018-10-21T07:18:43.345Z,1022.55
2018-10-21T07:19:42.185Z,1022.51
2018-10-21T07:20:42.163Z,1022.53
2018-10-21T07:21:42.129Z,1022.49
2018-10-21T07:22:44.302Z,1022.52
2018-10-21T07:23:42.073Z,1022.46
2018-10-21T07:24:42.162Z,1022.51
2018-10-21T07:25:42.020Z,1022.46
2018-10-21T07:26:42.070Z,1022.45
2018-10-21T07:27:41.953Z,1022.41
2018-10-21T07:28:41.958Z,1022.46
2018-10-21T07:29:43.010Z,1022.48
2018-10-21T07:30:41.894Z,1022.47
2018-10-21T07:31:41.914Z,1022.47
2018-10-21T07:32:41.810Z,1022.50
2018-10-21T07:33:41.812Z,1022.54
2018-10-21T07:34:41.756Z,1022.54
2018-10-21T07:35:41.795Z,1022.57
2018-10-21T07:36:41.709Z,1022.53
2018-10-21T07:37:41.670Z,1022.50
2018-10-21T07:38:41.640Z,1022.53
2018-10-21T07:39:41.604Z,1022.53
2018-10-21T07:40:41.585Z,1022.53
2018-10-21T07:41:41.540Z,1022.55
2018-10-21T07:42:41.524Z,1022.53
2018-10-21T07:43:41.488Z,1022.55
2018-10-21T07:44:41.551Z,1022.57
2018-10-21T07:45:41.437Z,1022.58
2018-10-21T07:46:41.412Z,1022.59
2018-10-21T07:47:41.371Z,1022.60
2018-10-21T07:48:41.344Z,1022.58
2018-10-21T07:49:41.313Z,1022.61
2018-10-21T07:51:27.526Z,1022.61
2018-10-21T07:52:27.520Z,1022.61
2018-10-21T07:53:27.446Z,1022.61
2018-10-21T07:54:27.424Z,1022.55
2018-10-21T07:55:27.401Z,1022.62
2018-10-21T07:56:27.365Z,1022.60
2018-10-21T07:57:27.400Z,1022.59
2018-10-21T07:58:27.325Z,1022.54
2018-10-21T07:59:27.278Z,1022.57
2018-10-21T08:00:27.316Z,1022.62
2018-10-21T08:04:17.963Z,1022.65
2018-10-21T08:05:17.923Z,1022.66
2018-10-21T08:06:18.021Z,1022.64
2018-10-21T08:07:17.865Z,1022.71
2018-10-21T08:08:17.844Z,1022.67
2018-10-21T08:09:17.841Z,1022.67
2018-10-21T08:10:17.903Z,1022.68
2018-10-21T08:11:17.848Z,1022.75
2018-10-21T08:12:17.714Z,1022.73
2018-10-21T08:13:17.760Z,1022.74
2018-10-21T08:14:17.662Z,1022.75
2018-10-21T08:15:17.772Z,1022.76
2018-10-21T08:16:17.670Z,1022.72
2018-10-21T08:17:17.683Z,1022.75
2018-10-21T08:18:17.541Z,1022.75
2018-10-21T08:19:17.606Z,1022.82
2018-10-21T08:20:17.489Z,1022.80
2018-10-21T08:21:17.461Z,1022.77
2018-10-21T08:22:17.437Z,1022.80
2018-10-21T08:23:17.396Z,1022.80
2018-10-21T08:24:17.426Z,1022.81
2018-10-21T08:25:17.339Z,1022.82
2018-10-21T08:26:17.339Z,1022.85
2018-10-21T08:27:17.371Z,1022.87
2018-10-21T08:28:17.360Z,1022.85
2018-10-21T08:29:17.262Z,1022.88
2018-10-21T08:30:17.209Z,1022.88
2018-10-21T08:31:17.167Z,1022.88
2018-10-21T08:32:17.133Z,1022.90
2018-10-21T08:33:17.125Z,1022.90
2018-10-21T08:34:17.131Z,1022.89
2018-10-21T08:35:17.049Z,1022.90
2018-10-21T08:36:17.018Z,1022.91
2018-10-21T08:37:17.001Z,1022.93
2018-10-21T08:38:16.973Z,1022.88
2018-10-21T08:39:16.931Z,1022.90
2018-10-21T08:40:16.970Z,1022.88
2018-10-21T08:41:16.874Z,1022.87
2018-10-21T08:42:16.846Z,1022.87
2018-10-21T08:43:16.816Z,1022.89
2018-10-21T08:44:16.793Z,1022.86
2018-10-21T08:45:16.859Z,1022.85
2018-10-21T08:46:16.831Z,1022.88
2018-10-21T08:47:16.695Z,1022.85
2018-10-21T08:48:16.671Z,1022.88
2018-10-21T08:49:16.707Z,1022.78
2018-10-21T08:50:16.621Z,1022.79
2018-10-21T08:51:16.585Z,1022.77
2018-10-21T08:52:16.640Z,1022.78
2018-10-21T08:53:16.531Z,1022.81
2018-10-21T08:54:16.501Z,1022.83
2018-10-21T08:55:16.551Z,1022.83
2018-10-21T08:56:16.442Z,1022.83
2018-10-21T08:57:16.410Z,1022.83
2018-10-21T08:58:16.501Z,1022.79
2018-10-21T08:59:16.361Z,1022.84
2018-10-21T09:00:16.336Z,1022.85
2018-10-21T09:01:16.391Z,1022.88
2018-10-21T09:02:16.267Z,1022.82
2018-10-21T09:03:16.246Z,1022.86
2018-10-21T09:04:16.328Z,1022.83
2018-10-21T09:05:16.182Z,1022.80
2018-10-21T09:06:16.150Z,1022.85
2018-10-21T09:07:16.241Z,1022.80
2018-10-21T09:08:16.103Z,1022.78
2018-10-21T09:09:16.095Z,1022.78
2018-10-21T09:10:16.245Z,1022.80
2018-10-21T09:11:16.116Z,1022.81
2018-10-21T09:12:15.977Z,1022.80
2018-10-21T09:13:16.048Z,1022.78
2018-10-21T09:14:15.922Z,1022.74
2018-10-21T09:15:16.023Z,1022.73
2018-10-21T09:16:15.928Z,1022.75
2018-10-21T09:17:15.957Z,1022.72
2018-10-21T09:18:15.803Z,1022.73
2018-10-21T09:19:15.857Z,1022.74
2018-10-21T09:20:15.766Z,1022.76
2018-10-21T09:21:15.717Z,1022.74
2018-10-21T09:22:15.699Z,1022.73
2018-10-21T09:23:15.677Z,1022.73
2018-10-21T09:24:15.643Z,1022.73
2018-10-21T09:25:15.728Z,1022.71
2018-10-21T09:26:15.572Z,1022.72
2018-10-21T09:27:15.607Z,1022.71
2018-10-21T09:28:15.554Z,1022.77
2018-10-21T09:29:15.489Z,1022.70
2018-10-21T09:30:15.524Z,1022.71
2018-10-21T09:31:15.500Z,1022.70
2018-10-21T09:32:15.454Z,1022.71
2018-10-21T09:33:15.448Z,1022.71
2018-10-21T09:34:15.485Z,1022.73
2018-10-21T09:35:15.310Z,1022.70
2018-10-21T09:36:15.361Z,1022.67
2018-10-21T09:37:15.312Z,1022.69
2018-10-21T09:38:15.267Z,1022.71
2018-10-21T09:39:15.200Z,1022.70
2018-10-21T09:40:15.350Z,1022.69
2018-10-21T09:41:15.141Z,1022.67
2018-10-21T09:42:15.212Z,1022.67
2018-10-21T09:43:15.205Z,1022.66
2018-10-21T09:44:15.112Z,1022.68
2018-10-21T09:45:15.034Z,1022.65
2018-10-21T09:46:15.046Z,1022.67
2018-10-21T09:47:14.986Z,1022.62
2018-10-21T09:48:15.031Z,1022.60
2018-10-21T09:49:15.029Z,1022.60
2018-10-21T09:50:14.947Z,1022.60
2018-10-21T09:51:14.866Z,1022.61
2018-10-21T09:52:14.910Z,1022.57
2018-10-21T09:53:14.802Z,1022.54
2018-10-21T09:54:14.871Z,1022.58
2018-10-21T09:55:14.864Z,1022.59
2018-10-21T09:56:15.808Z,1022.51
2018-10-21T09:57:14.691Z,1022.52
2018-10-21T09:58:14.775Z,1022.47
2018-10-21T09:59:14.633Z,1022.47
2018-10-21T10:00:14.709Z,1022.50
2018-10-21T10:01:14.644Z,1022.44
2018-10-21T10:02:14.616Z,1022.45
2018-10-21T10:03:14.561Z,1022.46
2018-10-21T10:04:14.558Z,1022.47
2018-10-21T10:06:00.484Z,1022.49
2018-10-21T10:07:00.500Z,1022.47
2018-10-21T10:08:00.424Z,1022.48
2018-10-21T10:09:00.415Z,1022.48
2018-10-21T10:10:00.352Z,1022.46
2018-10-21T10:11:01.341Z,1022.42
2018-10-21T10:12:00.291Z,1022.44
2018-10-21T10:13:00.399Z,1022.42
2018-10-21T10:14:00.233Z,1022.40
2018-10-21T10:15:00.240Z,1022.37
2018-10-21T10:16:00.226Z,1022.35
2018-10-21T10:17:00.255Z,1022.36
2018-10-21T10:18:00.131Z,1022.35
2018-10-21T10:19:00.103Z,1022.30
2018-10-21T10:20:00.075Z,1022.32
2018-10-21T10:21:00.037Z,1022.29
2018-10-21T10:22:00.154Z,1022.21
2018-10-21T10:22:59.994Z,1022.27
2018-10-21T10:24:01.113Z,1022.23
2018-10-21T10:24:59.930Z,1022.20
2018-10-21T10:25:59.909Z,1022.19
2018-10-21T10:26:59.883Z,1022.19
2018-10-21T10:27:59.957Z,1022.20
2018-10-21T10:28:59.800Z,1022.20
2018-10-21T10:29:59.835Z,1022.19
2018-10-21T10:30:59.749Z,1022.17
2018-10-21T10:31:59.748Z,1022.19
2018-10-21T10:32:59.687Z,1022.14
2018-10-21T10:33:59.789Z,1022.11
2018-10-21T10:34:59.631Z,1022.15
2018-10-21T10:35:59.700Z,1022.14
2018-10-21T10:36:59.602Z,1022.10
2018-10-21T10:37:59.640Z,1022.07
2018-10-21T10:38:59.514Z,1022.11
2018-10-21T10:39:59.582Z,1022.09
2018-10-21T10:40:59.465Z,1022.10
2018-10-21T10:41:59.564Z,1022.06
2018-10-21T10:42:59.414Z,1022.04
2018-10-21T10:43:59.471Z,1022.06
2018-10-21T10:44:59.354Z,1022.03
2018-10-21T10:45:59.339Z,1021.99
2018-10-21T10:46:59.300Z,1022.04
2018-10-21T10:47:59.279Z,1021.99
2018-10-21T10:48:59.296Z,1022.00
2018-10-21T10:49:59.216Z,1021.94
2018-10-21T10:50:59.178Z,1021.95
2018-10-21T10:51:59.196Z,1021.98
2018-10-21T10:52:59.174Z,1021.93
2018-10-21T10:53:59.135Z,1021.95
2018-10-21T10:54:59.081Z,1021.92
2018-10-21T10:55:59.071Z,1021.91
2018-10-21T10:56:59.012Z,1021.90
2018-10-21T10:57:59.016Z,1021.93
2018-10-21T10:58:58.958Z,1021.92
2018-10-21T11:00:54.096Z,1021.89
2018-10-21T11:01:54.006Z,1021.87
2018-10-21T11:03:54.661Z,1021.88
2018-10-21T11:04:53.514Z,1021.84
2018-10-21T11:05:53.496Z,1021.86
2018-10-21T11:06:53.480Z,1021.80
2018-10-21T11:07:53.435Z,1021.82
2018-10-21T11:08:53.425Z,1021.81
2018-10-21T11:09:53.384Z,1021.79
2018-10-21T11:10:53.355Z,1021.79
2018-10-21T11:11:54.415Z,1021.76
2018-10-21T11:12:53.306Z,1021.78
2018-10-21T11:13:53.360Z,1021.75
2018-10-21T11:14:53.246Z,1021.72
2018-10-21T11:15:53.269Z,1021.71
2018-10-21T11:16:53.205Z,1021.68
2018-10-21T11:17:54.205Z,1021.66
2018-10-21T11:18:53.133Z,1021.62
2018-10-21T11:19:53.197Z,1021.60
2018-10-21T11:20:53.103Z,1021.59
2018-10-21T11:21:53.185Z,1021.57
2018-10-21T11:22:53.044Z,1021.56
2018-10-21T11:23:53.016Z,1021.56
2018-10-21T11:24:52.970Z,1021.55
2018-10-21T11:25:53.032Z,1021.56
2018-10-21T11:26:52.914Z,1021.56
2018-10-21T11:27:52.881Z,1021.55
2018-10-21T11:28:52.851Z,1021.52
2018-10-21T11:29:52.851Z,1021.56
2018-10-21T11:30:52.793Z,1021.54
2018-10-21T11:31:52.764Z,1021.51
2018-10-21T11:32:52.737Z,1021.52
2018-10-21T11:33:52.712Z,1021.50
2018-10-21T11:34:53.707Z,1021.43
2018-10-21T11:35:52.664Z,1021.46
2018-10-21T11:36:52.632Z,1021.39
2018-10-21T11:37:53.621Z,1021.42
2018-10-21T11:38:52.572Z,1021.45
2018-10-21T11:39:52.616Z,1021.38
2018-10-21T11:40:52.524Z,1021.44
2018-10-21T11:41:52.526Z,1021.38
2018-10-21T11:42:52.455Z,1021.39
2018-10-21T11:43:52.439Z,1021.41
2018-10-21T11:44:52.403Z,1021.39
2018-10-21T11:45:52.396Z,1021.40
2018-10-21T11:46:52.357Z,1021.34
2018-10-21T11:47:52.356Z,1021.33
2018-10-21T11:48:52.294Z,1021.37
2018-10-21T11:49:52.281Z,1021.30
2018-10-21T11:50:52.255Z,1021.27
2018-10-21T11:51:52.205Z,1021.30
2018-10-21T11:53:38.757Z,1021.20
2018-10-21T11:54:38.778Z,1021.21
2018-10-21T11:55:38.663Z,1021.18
2018-10-21T11:56:38.636Z,1021.23
2018-10-21T11:57:38.607Z,1021.19
2018-10-21T11:58:38.578Z,1021.18
2018-10-21T11:59:38.576Z,1021.10
2018-10-21T12:00:38.527Z,1021.16
2018-10-21T12:01:38.501Z,1021.13
2018-10-21T12:02:38.474Z,1021.08
2018-10-21T12:03:38.445Z,1021.07
2018-10-21T12:04:38.414Z,1021.08
2018-10-21T12:05:38.390Z,1021.01
2018-10-21T12:06:38.363Z,1021.02
2018-10-21T12:07:38.336Z,1021.05
2018-10-21T12:08:38.308Z,1021.00
2018-10-21T12:09:38.276Z,1021.03
2018-10-21T12:10:38.249Z,1021.04
2018-10-21T12:11:38.224Z,1021.03
2018-10-21T12:12:38.194Z,1021.02
2018-10-21T12:13:38.202Z,1020.99
2018-10-21T12:14:38.151Z,1021.00
2018-10-21T12:15:38.115Z,1020.98
2018-10-21T12:16:38.085Z,1020.96